createdAt,value
2022-12-01T07:47:47.325Z,18.40
2022-12-01T07:50:14.582Z,19.03
2022-12-01T07:52:41.817Z,17.77
2022-12-01T07:55:09.128Z,17.50
2022-12-01T07:57:36.419Z,18.40
2022-12-01T08:00:04.573Z,18.53
2022-12-01T08:02:39.205Z,17.87
2022-12-01T08:05:06.660Z,18.73
2022-12-01T08:07:33.967Z,18.00
2022-12-01T08:10:01.362Z,18.03
2022-12-01T08:12:28.589Z,18.27
2022-12-01T08:14:55.883Z,18.30
2022-12-01T08:17:23.247Z,17.77
2022-12-01T08:19:50.877Z,18.33
2022-12-01T08:22:18.331Z,18.60
2022-12-01T08:24:46.709Z,18.17
2022-12-01T08:27:14.119Z,18.43
2022-12-01T08:29:41.406Z,18.73
2022-12-01T08:32:26.870Z,18.47
2022-12-01T08:34:54.270Z,18.87
2022-12-01T08:37:21.679Z,18.50
2022-12-01T08:39:49.469Z,18.67
2022-12-01T08:42:17.145Z,18.07
2022-12-01T08:44:44.730Z,17.97
2022-12-01T08:47:17.170Z,17.67
2022-12-01T08:49:46.263Z,17.87
2022-12-01T08:52:14.065Z,17.40
2022-12-01T08:54:42.495Z,17.30
2022-12-01T08:57:09.769Z,15.97
2022-12-01T08:59:37.106Z,16.83
2022-12-01T09:02:07.029Z,15.97
2022-12-01T09:04:34.692Z,16.87
2022-12-01T09:07:01.985Z,16.13
2022-12-01T09:09:30.779Z,15.90
2022-12-01T09:11:58.192Z,16.90
2022-12-01T09:14:25.858Z,16.90
2022-12-01T09:16:54.469Z,16.40
2022-12-01T09:19:24.896Z,16.87
2022-12-01T09:21:53.804Z,16.00
2022-12-01T09:24:21.064Z,15.83
2022-12-01T09:26:48.402Z,16.50
2022-12-01T09:29:17.613Z,16.80
2022-12-01T09:31:44.952Z,16.20
2022-12-01T09:34:14.396Z,17.40
2022-12-01T09:36:41.798Z,16.67
2022-12-01T09:39:12.272Z,17.87
2022-12-01T09:41:39.531Z,18.03
2022-12-01T09:44:14.332Z,18.77
2022-12-01T09:46:45.145Z,18.60
2022-12-01T09:49:18.424Z,19.00
2022-12-01T09:51:45.839Z,19.10
2022-12-01T09:54:14.450Z,19.73
2022-12-01T09:56:50.682Z,19.57
2022-12-01T09:59:22.634Z,20.50
2022-12-01T10:01:56.042Z,19.93
2022-12-01T10:04:36.861Z,19.83
2022-12-01T10:07:06.249Z,20.30
2022-12-01T10:09:33.489Z,20.93
2022-12-01T10:12:07.426Z,22.43
2022-12-01T10:14:36.888Z,23.23
2022-12-01T10:17:14.391Z,21.70
2022-12-01T10:20:08.194Z,22.10
2022-12-01T10:22:46.238Z,22.27
2022-12-01T10:25:16.932Z,20.97
2022-12-01T10:27:47.615Z,21.07
2022-12-01T10:30:17.028Z,20.47
2022-12-01T10:32:58.480Z,21.87
2022-12-01T10:35:29.165Z,20.70
2022-12-01T10:38:02.708Z,20.40
2022-12-01T10:40:34.615Z,20.80
2022-12-01T10:43:02.558Z,22.67
2022-12-01T10:45:32.453Z,22.93
2022-12-01T10:48:19.610Z,23.37
2022-12-01T10:50:50.049Z,22.77
2022-12-01T10:53:26.937Z,21.70
2022-12-01T10:56:03.237Z,21.90
2022-12-01T10:58:32.201Z,23.27
2022-12-01T11:01:23.825Z,24.43
2022-12-01T11:03:53.415Z,24.43
2022-12-01T11:06:22.675Z,25.20
2022-12-01T11:08:57.446Z,26.87
2022-12-01T11:11:27.165Z,27.57
2022-12-01T11:13:55.095Z,26.77
2022-12-01T11:16:39.921Z,27.53
2022-12-01T11:19:27.218Z,28.30
2022-12-01T11:21:56.880Z,28.37
2022-12-01T11:24:44.137Z,28.27
2022-12-01T11:27:19.657Z,28.17
2022-12-01T11:29:48.749Z,26.60
2022-12-01T11:32:24.257Z,26.03
2022-12-01T11:34:56.523Z,26.23
2022-12-01T11:37:25.347Z,26.03
2022-12-01T11:39:53.391Z,26.17
2022-12-01T11:42:23.430Z,26.37
2022-12-01T11:44:52.655Z,26.93
2022-12-01T11:47:24.937Z,25.97
2022-12-01T11:49:56.671Z,26.83
2022-12-01T11:52:27.341Z,27.20
2022-12-01T11:54:59.182Z,26.53
2022-12-01T11:57:35.295Z,26.23
2022-12-01T12:00:06.668Z,26.02
2022-12-01T12:02:40.784Z,24.60
2022-12-01T12:05:17.087Z,25.80
2022-12-01T12:08:03.044Z,23.47
2022-12-01T12:10:48.555Z,24.80
2022-12-01T12:13:15.847Z,25.03
2022-12-01T12:15:45.889Z,24.93
2022-12-01T12:18:39.792Z,23.20
2022-12-01T12:21:07.057Z,24.93
2022-12-01T12:23:46.324Z,24.90
2022-12-01T12:26:33.457Z,23.83
2022-12-01T12:29:19.004Z,23.10
2022-12-01T12:36:00.501Z,23.43
2022-12-01T12:38:35.040Z,23.77
2022-12-01T12:41:22.216Z,23.10
2022-12-01T12:44:01.335Z,22.90
2022-12-01T12:46:38.422Z,22.80
2022-12-01T12:49:20.942Z,24.20
2022-12-01T12:51:53.085Z,24.00
2022-12-01T12:54:30.799Z,22.93
2022-12-01T12:57:04.275Z,22.07
2022-12-01T12:59:39.476Z,21.03
2022-12-01T13:02:17.676Z,19.53
2022-12-01T13:05:00.829Z,20.27
2022-12-01T13:07:41.141Z,19.00
2022-12-01T13:10:17.184Z,17.40
2022-12-01T13:12:46.676Z,18.03
2022-12-01T13:15:19.084Z,15.30
2022-12-01T13:17:52.229Z,14.03
2022-12-01T13:20:23.037Z,13.93
2022-12-01T13:22:50.848Z,13.37
2022-12-01T13:25:20.881Z,11.97
2022-12-01T13:27:48.975Z,11.73
2022-12-01T13:30:21.578Z,11.40
2022-12-01T13:32:49.552Z,11.37
2022-12-01T13:35:19.885Z,10.43
2022-12-01T13:37:47.236Z,11.47
2022-12-01T13:40:22.689Z,12.07
2022-12-01T13:42:58.414Z,10.47
2022-12-01T13:45:30.184Z,10.63
2022-12-01T13:48:01.262Z,10.60
2022-12-01T13:50:44.029Z,10.60
2022-12-01T13:53:12.193Z,10.90
2022-12-01T13:55:58.139Z,11.17
2022-12-01T13:58:34.532Z,10.63
2022-12-01T14:01:20.866Z,10.63
2022-12-01T14:03:54.297Z,10.50
2022-12-01T14:06:26.964Z,10.30
2022-12-01T14:09:02.830Z,10.40
2022-12-01T14:11:35.466Z,10.50
2022-12-01T14:14:10.493Z,11.00
2022-12-01T14:16:54.759Z,10.90
2022-12-01T14:19:46.458Z,10.03
2022-12-01T14:22:35.409Z,11.40
2022-12-01T14:25:12.167Z,11.50
2022-12-01T14:27:44.512Z,11.37
2022-12-01T14:30:30.414Z,11.90
2022-12-01T14:33:50.299Z,11.87
2022-12-01T14:36:42.727Z,11.97
2022-12-01T14:39:24.908Z,12.90
2022-12-01T14:42:00.192Z,12.23
2022-12-01T14:44:31.289Z,13.17
2022-12-01T16:55:30.058Z,23.53
2022-12-01T16:57:57.340Z,22.87
2022-12-01T17:00:24.931Z,22.03
2022-12-01T17:02:52.851Z,22.13
2022-12-01T17:05:20.373Z,22.70
2022-12-01T17:07:47.746Z,21.43
2022-12-01T17:10:15.651Z,21.13
2022-12-01T17:12:42.996Z,20.60
2022-12-01T17:15:11.170Z,21.83
2022-12-01T17:17:40.485Z,21.27
2022-12-01T17:20:11.624Z,21.80
2022-12-01T17:22:39.055Z,22.47
2022-12-01T17:25:08.809Z,22.33
2022-12-01T17:27:36.802Z,22.73
2022-12-01T17:30:04.973Z,21.90
2022-12-01T17:32:32.603Z,22.00
2022-12-01T17:34:59.924Z,22.07
2022-12-01T17:37:30.067Z,21.87
2022-12-01T17:39:57.386Z,21.40
2022-12-01T17:42:24.701Z,21.60
2022-12-01T17:44:52.273Z,21.67
2022-12-01T17:47:19.688Z,22.37
2022-12-01T17:49:46.991Z,23.43
2022-12-01T17:52:14.487Z,22.50
2022-12-01T17:54:41.974Z,22.63
2022-12-01T17:57:09.265Z,23.40
2022-12-01T17:59:37.154Z,24.60
2022-12-01T18:02:04.635Z,23.83
2022-12-01T18:04:32.097Z,25.03
2022-12-01T18:06:59.548Z,24.83
2022-12-01T18:09:27.294Z,24.37
2022-12-01T18:11:56.315Z,24.77
2022-12-01T18:14:27.003Z,25.63
2022-12-01T18:16:54.376Z,26.10
2022-12-01T18:19:22.000Z,25.23
2022-12-01T18:21:50.553Z,26.47
2022-12-01T18:24:19.004Z,26.90
2022-12-01T18:26:46.414Z,28.80
2022-12-01T18:29:16.177Z,25.83
2022-12-01T18:31:44.095Z,27.00
2022-12-01T18:34:14.231Z,25.47
2022-12-01T18:36:42.011Z,26.10
2022-12-01T18:39:10.310Z,25.37
2022-12-01T18:41:38.624Z,25.17
2022-12-01T18:44:06.032Z,24.97
2022-12-01T18:46:35.502Z,24.80
2022-12-01T18:49:03.148Z,25.47
2022-12-01T18:51:31.403Z,25.57
2022-12-01T18:53:59.351Z,24.10
2022-12-01T18:56:26.993Z,25.23
2022-12-01T18:58:55.452Z,25.10
2022-12-01T19:01:27.245Z,25.20
2022-12-01T19:04:00.734Z,24.87
2022-12-01T19:06:28.715Z,24.40
2022-12-01T19:09:00.923Z,24.83
2022-12-01T19:11:28.695Z,24.97
2022-12-01T19:13:56.409Z,25.30
2022-12-01T19:16:24.087Z,25.10
2022-12-01T19:18:53.249Z,25.23
2022-12-01T19:21:21.107Z,24.83
2022-12-01T19:23:49.311Z,25.30
2022-12-01T19:26:18.423Z,26.80
2022-12-01T19:28:45.969Z,25.30
2022-12-01T19:31:15.460Z,26.50
2022-12-01T19:33:42.917Z,25.87
2022-12-01T19:36:11.571Z,26.27
2022-12-01T19:38:38.971Z,27.77
2022-12-01T19:41:06.696Z,26.57
2022-12-01T19:43:34.490Z,26.17
2022-12-01T19:46:10.018Z,27.27
2022-12-01T19:48:37.564Z,27.17
2022-12-01T19:51:04.971Z,27.40
2022-12-01T19:53:34.117Z,26.07
2022-12-01T19:56:03.085Z,24.57
2022-12-01T19:58:33.205Z,24.27
2022-12-01T20:01:09.129Z,25.17
2022-12-01T20:03:36.661Z,25.40
2022-12-01T20:06:06.890Z,26.43
2022-12-01T20:08:36.088Z,27.50
2022-12-01T20:11:04.321Z,26.60
2022-12-01T20:13:32.149Z,27.47
2022-12-01T20:16:03.861Z,27.67
2022-12-01T20:18:31.693Z,26.53
2022-12-01T20:21:06.430Z,26.73
2022-12-01T20:23:34.063Z,25.63
2022-12-01T20:26:05.516Z,25.60
2022-12-01T20:28:33.461Z,24.90
2022-12-01T20:31:00.738Z,24.30
2022-12-01T20:33:28.058Z,24.37
2022-12-01T20:35:55.363Z,25.57
2022-12-01T20:38:27.266Z,26.10
2022-12-01T20:40:55.376Z,25.20
2022-12-01T20:43:23.015Z,24.00
2022-12-01T20:45:52.274Z,24.70
2022-12-01T20:48:20.257Z,24.27
2022-12-01T20:50:48.060Z,25.03
2022-12-01T20:53:15.613Z,24.77
2022-12-01T20:55:43.394Z,25.47
2022-12-01T20:58:11.158Z,26.53
2022-12-01T21:00:39.758Z,28.30
2022-12-01T21:03:07.483Z,24.77
2022-12-01T21:05:35.226Z,24.10
2022-12-01T21:08:03.078Z,25.10
2022-12-01T21:10:30.722Z,25.60
2022-12-01T21:13:25.376Z,25.07
2022-12-01T21:16:03.469Z,25.07
2022-12-01T21:18:42.365Z,24.57
2022-12-01T21:21:29.476Z,25.60
2022-12-01T21:24:12.383Z,25.10
2022-12-01T21:26:41.442Z,25.23
2022-12-01T21:29:15.017Z,26.43
2022-12-01T21:31:42.684Z,26.13
2022-12-01T21:34:17.911Z,26.40
2022-12-01T21:36:46.125Z,24.80
2022-12-01T21:39:18.076Z,24.97
2022-12-01T21:41:45.341Z,26.30
2022-12-01T21:44:17.045Z,25.40
2022-12-01T21:46:44.569Z,25.40
2022-12-01T21:49:13.805Z,24.33
2022-12-01T21:51:41.085Z,25.90
2022-12-01T21:54:13.107Z,24.57
2022-12-01T21:56:41.162Z,24.37
2022-12-01T21:59:19.261Z,26.00
2022-12-01T22:01:47.071Z,25.13
2022-12-01T22:04:20.161Z,24.80
2022-12-01T22:06:48.907Z,25.00
2022-12-01T22:09:28.518Z,26.33
2022-12-01T22:11:57.505Z,24.47
2022-12-01T22:14:28.703Z,24.40
2022-12-01T22:17:00.436Z,24.97
2022-12-01T22:19:32.538Z,24.10
2022-12-01T22:22:12.507Z,24.43
2022-12-01T22:24:59.370Z,24.30
2022-12-01T22:27:44.039Z,24.87
2022-12-01T22:30:11.479Z,24.00
2022-12-01T22:32:55.995Z,25.00
2022-12-01T22:35:27.690Z,24.57
2022-12-01T22:37:56.408Z,25.17
2022-12-01T22:40:39.035Z,25.87
2022-12-01T22:43:20.040Z,25.27
2022-12-01T22:45:53.707Z,26.77
2022-12-01T22:48:38.451Z,26.13
2022-12-01T22:51:17.036Z,25.27
2022-12-01T22:53:46.174Z,25.03
2022-12-01T22:56:22.170Z,26.27
2022-12-01T22:58:49.516Z,26.17
2022-12-01T23:01:27.379Z,26.23
2022-12-01T23:04:14.284Z,24.57
2022-12-01T23:06:48.636Z,24.07
